• Join FlightAware (Why Join?)
  • Login
  • US Flag 
03:49PM EST


 

Airport Tracker/Info


-or-


 

Live Flight TrackerFlight Track Log ✈ N204BG ✈ 24-Jul-2013 ✈ KRMG - KBHM

Flight Track Log - Related Links

Times and Time Zones

All times are in EDT time to prevent confusion due to time zone crossing. See the N204BG flight status page for this flight to view local times or setup timezone preferences in your user account.

Time Position Orientation Groundspeed Altitude Reporting Facility
EDT Latitude Longitude Course Direction KTS MPH feet Rate Location/Type
06:09PM 34.2511 -85.3081 240° Southwest 284 327 7,900  Level Atlanta Center
06:10PM 34.2231 -85.3978 249° West 291 335 7,900  Level Atlanta Center
06:11PM 34.1928 -85.4878 248° West 294 338 7,900  Level Atlanta Center
06:12PM 34.1603 -85.5778 246° West 294 338 7,900  Level Atlanta Center
06:13PM 34.1300 -85.6650 247° West 289 333 7,900  Level Atlanta Center
06:14PM 34.0997 -85.7522 247° West 289 333 7,900  Level Atlanta Center
06:15PM 34.0628 -85.8467 245° Southwest 289 333 8,000  Climbing Atlanta Center
06:16PM 34.0322 -85.9364 248° West 289 333 8,000 -360 Level Atlanta Center
06:17PM 33.9994 -86.0258 246° West 289 333 7,300 -1,020 Descending Atlanta Center
06:18PM 33.9647 -86.1078 243° Southwest 289 333 6,000 -660 Descending Atlanta Center
06:19PM 33.9175 -86.1817 232° Southwest 289 333 6,000  Level Atlanta Center
06:20PM 33.8661 -86.2578 231° Southwest 295 339 6,000  Level Atlanta Center
06:21PM 33.7936 -86.3436 225° Southwest 296 341 6,100  Climbing Atlanta Center
06:22PM 33.7467 -86.3972 224° Southwest 300 345 6,000 -120 Descending Atlanta Center
06:23PM 33.6894 -86.4456 215° Southwest 290 334 5,900 -480 Descending Atlanta Center
06:24PM 33.6300 -86.4989 217° Southwest 226 260 5,000 -1,200 Descending Atlanta Center
06:25PM 33.5956 -86.5478 230° Southwest 239 275 3,600 -1,080 Descending Atlanta Center
06:26PM 33.5483 -86.6036 225° Southwest 239 275 3,000 -360 Descending Atlanta Center
06:27PM 33.5033 -86.6644 228° Southwest 205 236 2,900 -360 Descending Atlanta Center
06:28PM 33.4936 -86.7314 260° West 170 196 2,300 -720 Descending Atlanta Center
06:29PM 33.5264 -86.7500 335° Northwest 119 137 1,400 -900 Descending Atlanta Center
06:31PM 33.5500 -86.7500 278° West  Level FlightAware Approximate
06:38PM 33.5639 -86.7523 278° West  Level Estimated